HomeShort term forecast

Short term forecast

Graphical weather forecast for the next 48 hours for Montreal:

Short term forecast

This weather forecast is automatically refreshed every 3 hours.

Hourly Experimental Forecast for the next 48 hours ®

Overall summary: Clear throughout the day.

 Date & Hour   Temp   Feel   Baro   Hum   Speed & Bearing   Wind Gust   Precip.%   Precip.   Visibility   Cloud cover   Conditions 
 25/02/2021 - 14:00  -5.1°C  -12.3°C  1018.5 hPa  71%  24.0 km/h   38.2 km/h  6%  0.01 mm/h  16.1km  41%  Partly Cloudy 
 25/02/2021 - 15:00  -5.4°C  -12.4°C  1019.4 hPa  73%  22.8 km/h   37.2 km/h  0%  --  16.1km  43%  Partly Cloudy 
 25/02/2021 - 16:00  -5.9°C  -12.9°C  1020.0 hPa  75%  21.4 km/h   36.5 km/h  0%  --  16.1km  45%  Partly Cloudy 
 25/02/2021 - 17:00  -6.9°C  -13.7°C  1020.6 hPa  78%  18.4 km/h   36.2 km/h  5%  0.04 mm/h  16.1km  46%  Partly Cloudy 
 25/02/2021 - 18:00  -8.4°C  -14.4°C  1021.5 hPa  81%  13.6 km/h   34.3 km/h  0%  --  16.1km  46%  Partly Cloudy 
 25/02/2021 - 19:00  -9.2°C  -14.6°C  1022.4 hPa  83%  10.9 km/h   32.6 km/h  2%  0.04 mm/h  16.1km  59%  Partly Cloudy 
 25/02/2021 - 20:00  -9.1°C  -14.6°C  1023.1 hPa  81%  11.3 km/h   31.5 km/h  0%  --  16.1km  48%  Partly Cloudy 
 25/02/2021 - 21:00  -9.8°C  -15.1°C  1023.6 hPa  80%  10.0 km/h   25.6 km/h  0%  --  16.1km  41%  Partly Cloudy 
 25/02/2021 - 22:00  -9.6°C  -14.4°C  1024.0 hPa  80%  9.1 km/h   21.2 km/h  0%  --  15.8km  50%  Partly Cloudy 
 25/02/2021 - 23:00  -9.9°C  -14.7°C  1024.6 hPa  78%  8.8 km/h   18.1 km/h  0%  --  15.1km  58%  Partly Cloudy 
 26/02/2021 - 00:00  -10.3°C  -15.2°C  1024.6 hPa  77%  9.0 km/h   17.2 km/h  1%  0.02 mm/h  14.6km  59%  Partly Cloudy 
 26/02/2021 - 01:00  -10.7°C  -15.6°C  1025.1 hPa  76%  9.0 km/h   17.4 km/h  0%  --  14.6km  52%  Partly Cloudy 
 26/02/2021 - 02:00  -11.4°C  -16.4°C  1025.7 hPa  75%  8.6 km/h   17.3 km/h  0%  --  13.2km  62%  Mostly Cloudy 
 26/02/2021 - 03:00  -12.2°C  -16.9°C  1026.4 hPa  74%  7.8 km/h   13.4 km/h  0%  --  13.4km  44%  Partly Cloudy 
 26/02/2021 - 04:00  -13.0°C  -17.5°C  1027.0 hPa  74%  7.0 km/h   10.3 km/h  0%  --  13.0km  16%  Clear 
 26/02/2021 - 05:00  -13.9°C  -18.1°C  1027.7 hPa  74%  6.3 km/h   7.9 km/h  0%  --  12.7km  13%  Clear 
 26/02/2021 - 06:00  -14.6°C  -18.6°C  1028.3 hPa  74%  5.7 km/h   6.8 km/h  0%  --  12.5km  12%  Clear 
 26/02/2021 - 07:00  -14.6°C  -18.4°C  1029.1 hPa  74%  5.4 km/h   6.3 km/h  0%  --  13.5km  12%  Clear 
 26/02/2021 - 08:00  -13.2°C  -16.9°C  1029.9 hPa  78%  5.6 km/h   7.1 km/h  0%  --  16.1km  12%  Clear 
 26/02/2021 - 09:00  -11.0°C  -14.8°C  1030.6 hPa  81%  6.5 km/h   11.3 km/h  0%  --  16.1km  13%  Clear 
 26/02/2021 - 10:00  -8.9°C  -13.0°C  1030.8 hPa  81%  7.4 km/h   14.2 km/h  0%  --  16.1km  13%  Clear 
 26/02/2021 - 11:00  -7.5°C  -11.6°C  1030.7 hPa  79%  8.4 km/h   15.9 km/h  0%  --  16.1km  11%  Clear 
 26/02/2021 - 12:00  -6.4°C  -10.9°C  1030.2 hPa  78%  9.8 km/h   19.2 km/h  0%  --  16.1km  9%  Clear 
 26/02/2021 - 13:00  -5.4°C  -9.8°C  1029.7 hPa  77%  10.2 km/h   21.2 km/h  0%  --  16.1km  8%  Clear 
 26/02/2021 - 14:00  -4.1°C  -8.0°C  1029.6 hPa  77%  9.6 km/h   22.1 km/h  0%  --  16.1km  20%  Clear 
 26/02/2021 - 15:00  -2.9°C  -6.3°C  1029.7 hPa  78%  8.6 km/h   22.4 km/h  0%  --  16.1km  23%  Clear 
 26/02/2021 - 16:00  -2.5°C  -5.6°C  1030.0 hPa  79%  7.9 km/h   22.2 km/h  0%  --  16.1km  26%  Clear 
 26/02/2021 - 17:00  -3.4°C  -6.6°C  1030.1 hPa  82%  7.8 km/h   17.1 km/h  0%  --  16.1km  30%  Clear 
 26/02/2021 - 18:00  -4.9°C  -8.5°C  1030.4 hPa  83%  8.1 km/h   12.7 km/h  0%  --  15.9km  33%  Partly Cloudy 
 26/02/2021 - 19:00  -6.1°C  -9.9°C  1030.1 hPa  85%  8.2 km/h   9.5 km/h  0%  --  12.6km  36%  Partly Cloudy 
 26/02/2021 - 20:00  -7.1°C  -11.0°C  1029.5 hPa  80%  7.9 km/h   8.3 km/h  0%  --  16.1km  50%  Partly Cloudy 
 26/02/2021 - 21:00  -7.3°C  -10.8°C  1028.7 hPa  77%  6.9 km/h   7.1 km/h  0%  --  12.7km  67%  Mostly Cloudy 
 26/02/2021 - 22:00  -7.5°C  -10.8°C  1028.2 hPa  74%  6.4 km/h   6.8 km/h  0%  --  12.0km  86%  Mostly Cloudy 
 26/02/2021 - 23:00  -8.0°C  -11.2°C  1027.7 hPa  73%  6.0 km/h   6.4 km/h  0%  --  12.4km  69%  Mostly Cloudy 
 27/02/2021 - 00:00  -8.6°C  -11.7°C  1027.1 hPa  72%  5.6 km/h   6.1 km/h  0%  --  13.1km  67%  Mostly Cloudy 
 27/02/2021 - 01:00  -9.3°C  -12.6°C  1026.7 hPa  72%  5.7 km/h   6.4 km/h  0%  --  14.0km  89%  Overcast 
 27/02/2021 - 02:00  -9.6°C  -13.2°C  1026.1 hPa  73%  6.2 km/h   6.9 km/h  0%  --  15.9km  98%  Overcast 
 27/02/2021 - 03:00  -9.7°C  -13.8°C  1025.4 hPa  74%  7.1 km/h   8.0 km/h  0%  --  16.1km  79%  Mostly Cloudy 
 27/02/2021 - 04:00  -9.3°C  -13.7°C  1024.6 hPa  74%  8.2 km/h   9.2 km/h  0%  --  16.1km  98%  Overcast 
 27/02/2021 - 05:00  -7.8°C  -12.4°C  1023.7 hPa  76%  9.5 km/h   17.4 km/h  0%  --  16.1km  96%  Overcast 
 27/02/2021 - 06:00  -6.0°C  -10.7°C  1022.9 hPa  77%  10.8 km/h   27.5 km/h  1%  0.01 mm/h  15.4km  92%  Overcast 
 27/02/2021 - 07:00  -4.8°C  -9.7°C  1021.7 hPa  79%  12.3 km/h   33.9 km/h  2%  0.03 mm/h  14.2km  91%  Overcast 
 27/02/2021 - 08:00  -3.6°C  -8.9°C  1020.6 hPa  81%  15.3 km/h   36.7 km/h  8%  0.09 mm/h  14.9km  92%  Overcast 
 27/02/2021 - 09:00  -2.4°C  -8.0°C  1019.4 hPa  84%  18.7 km/h   38.6 km/h  19%  0.29 mm/h  14.9km  96%  Overcast 
 27/02/2021 - 10:00  -1.5°C  -7.3°C  1018.1 hPa  87%  21.1 km/h   39.6 km/h  27%  0.67 mm/h  3.8km  98%  Snow 
 27/02/2021 - 11:00  -1.0°C  -6.7°C  1016.7 hPa  88%  21.8 km/h   41.2 km/h  38%  0.98 mm/h  4.6km  98%  Snow 
 27/02/2021 - 12:00  -0.7°C  -6.1°C  1015.3 hPa  89%  20.6 km/h   38.9 km/h  52%  1.01 mm/h  6.8km  98%  Snow 
 27/02/2021 - 13:00  -0.3°C  -5.4°C  1013.9 hPa  90%  18.7 km/h   34.7 km/h  65%  0.98 mm/h  9.2km  99%  Snow 

 

Past weather and reports

Past weatherFind in this section the past weather conditions, weather archive, graphics, reports and statistics.

Current conditions

Current weather condition for MontrealAll you need to know about the current weather conditions for Montreal. Weather data is updated every 10 minutes.

Weather forecast

Current Montreal weatherSince 2004, celinium.com website has provided accurate weather forecast for Montreal's island.